CCGS Henry Larsen — CGHL — position and weather

sailwx.info

Track history (hours):
 
Tides and Currents Weather Stations Pressure Air Temp Water Temp Dewpoint Dewpoint Depression Visibility Wind Speed Wind Dir Waves Ship Positions

CCGS Henry Larsen (Canada)

Medium Gulf/River Icebreaker

Last reported at 2018-Nov-15 07:00 UTC. Time now 2018-Nov-15 08:04 UTC.
Position N 58°30' W 062°48'.

Length 100.03 m; beam 19.82 m; draft 7.2 m.

Type: SAR. MMSI: 316013000.

Wind from 270 at 8 knots

Barometer 1005.4 mb
Air temperature -4.8 ° C
Dewpoint -12.0 ° C

Date/timePositionNaut miles runAvg speedWind from/ knotsBaromVisibWave heightAir tempDewpointWater temp
2018-Nov-15 07:00N 58°30' W 062°48'0 0.0 270 / 81005.4 -4.8-12.0
2018-Nov-15 06:00N 58°30' W 062°48'0 0.0 260 / 131004.7 -5.2-11.9
2018-Nov-15 05:00N 58°30' W 062°48'0 0.0 260 / 101004.0 -4.7-10.8
2018-Nov-15 04:00N 58°30' W 062°48'0 0.0 280 / 81003.2 -4.5-10.6
2018-Nov-15 03:00N 58°30' W 062°48'0 0.0 330 / 151002.5 -3.5-7.2
2018-Nov-15 02:00N 58°30' W 062°48'0 0.0 330 / 161001.8 -3.2-9.6
2018-Nov-15 01:00N 58°30' W 062°48'0 0.0 320 / 121001.4 -3.6-11.6
2018-Nov-15 00:00N 58°30' W 062°48'0 0.0 310 / 71001.4 -4.0-11.5
2018-Nov-14 23:00N 58°30' W 062°48'0 0.0 310 / 91001.3 -4.0-11.8
2018-Nov-14 22:00N 58°30' W 062°48'0 0.0 320 / 121001.2 -3.9-11.4
2018-Nov-14 21:00N 58°30' W 062°48'0 0.0 290 / 51001.1 -4.1-10.9
2018-Nov-14 20:00N 58°30' W 062°48'0 0.0 240 / 91001.1 -5.0-10.5
2018-Nov-14 19:00N 58°30' W 062°48'0 0.0 160 / 11001.4 -5.3-9.9
2018-Nov-14 18:00N 58°30' W 062°48'0 0.0 080 / 31001.2 -5.8-9.4
2018-Nov-14 17:00N 58°30' W 062°48'0 0.0 130 / 31001.1 -5.9-9.5
2018-Nov-14 16:00N 58°30' W 062°48'0 0.0 120 / 41001.3 -6.3-10.2
2018-Nov-14 15:00N 58°30' W 062°48'0 0.0 170 / 31002.1 -6.9-10.5
2018-Nov-14 13:00N 58°30' W 062°48'0 0.0 170 / 51003.3 -7.8-11.9
2018-Nov-14 12:00N 58°30' W 062°48'0 0.0 170 / 31004.1 -7.9-12.3
2018-Nov-14 11:00N 58°30' W 062°48'0 0.0 170 / 51004.4 -7.5-12.1
2018-Nov-14 10:00N 58°30' W 062°48'0 0.0 180 / 31005.2 -7.3-11.6
2018-Nov-14 09:00N 58°30' W 062°48'0 0.0 100 / 11006.1 -7.2-12.4
2018-Nov-14 08:00N 58°30' W 062°48'0 0.0 170 / 81006.8 -6.7-11.4
2018-Nov-14 07:00N 58°30' W 062°48'0 0.0 170 / 81007.0 -6.7-10.7
2018-Nov-14 06:00N 58°30' W 062°48'0 0.0 170 / 81007.7 -6.7-11.4
2018-Nov-14 05:00N 58°30' W 062°48'0 0.0 150 / 111008.5 -6.2-11.7
2018-Nov-14 04:00N 58°30' W 062°48'0 0.0 180 / 61009.7 -6.8-9.9
2018-Nov-14 03:00N 58°30' W 062°48'0 0.0 170 / 91010.6 -6.3-10.7
2018-Nov-14 02:00N 58°30' W 062°48'0 0.0 190 / 81011.5 -6.1-10.9
2018-Nov-14 01:00N 58°30' W 062°48'0 0.0 200 / 71012.4 -6.4-11.4
2018-Nov-14 00:00N 58°30' W 062°48'0 0.0 180 / 61013.2 -6.7-11.5
2018-Nov-13 23:00N 58°30' W 062°48'0 0.0 160 / 51014.1 -7.3-11.0
2018-Nov-13 22:00N 58°30' W 062°48'0 0.0 190 / 41014.8 -6.7-11.3
2018-Nov-13 21:00N 58°30' W 062°48'0 0.0 200 / 51015.5 -6.8-11.5
2018-Nov-13 20:00N 58°30' W 062°48'18 9.0 160 / 91016.2 -6.2-10.4
2018-Nov-13 18:00N 58°48' W 062°48'1413.5 080 / 81015.9 -4.0-9.1
2018-Nov-13 17:00N 59°00' W 063°00'1919.0 080 / 51016.4 -4.4-9.4
2018-Nov-13 16:00N 59°18' W 063°12'1212.0 140 / 11016.7 -4.5-8.9
2018-Nov-13 15:00N 59°30' W 063°12'1818.0 290 / 31017.3 -4.5-7.7
2018-Nov-13 14:00N 59°48' W 063°12'1515.0 020 / 101018.0 -4.6-9.1
2018-Nov-13 13:00N 60°00' W 063°30'1515.0 010 / 131018.5 -5.1-9.4
2018-Nov-13 12:00N 60°12' W 063°48'1515.0 360 / 131018.9 -5.2-10.7
2018-Nov-13 11:00N 60°24' W 064°06'1918.7 340 / 191018.9 -5.6-10.1
2018-Nov-13 10:00N 60°30' W 064°42'1615.9 330 / 241019.0 -6.0-11.3
2018-Nov-13 09:00N 60°36' W 065°12'1615.9 350 / 201019.2 -5.5-10.0
2018-Nov-13 08:00N 60°42' W 065°42'3215.8 350 / 171019.5 -5.3-9.3
2018-Nov-13 06:00N 60°54' W 066°42'1615.8 320 / 221019.9 -6.2-11.3
2018-Nov-13 05:00N 61°00' W 067°12'2121.1 310 / 261019.9 -6.1-12.0
2018-Nov-13 04:00N 61°12' W 067°48'1615.6 320 / 251020.5 -5.9-11.7
2018-Nov-13 03:00N 61°18' W 068°18'1615.6 320 / 241020.6 -5.9-11.7
2018-Nov-13 02:00N 61°24' W 068°48'1615.5 330 / 211021.0 -5.6-11.1
2018-Nov-13 01:00N 61°30' W 069°18'1615.5 330 / 211021.3 -5.1-11.6
2018-Nov-13 00:00N 61°36' W 069°48'1515.5 350 / 221021.6 -5.0-9.9
2018-Nov-12 23:00N 61°42' W 070°18'1818.1 360 / 141021.9 -5.0-9.5
2018-Nov-12 22:00N 61°48' W 070°54'1515.4 350 / 201021.7 -4.8-10.1
2018-Nov-12 21:00N 61°54' W 071°24'1515.3 010 / 141021.9 -4.6-7.9
2018-Nov-12 20:00N 62°00' W 071°54'1818.5 330 / 181021.7 -5.6-7.5
2018-Nov-12 19:00N 62°12' W 072°24'1818.4 340 / 141021.5 -4.9-8.9
2018-Nov-12 18:00N 62°24' W 072°54'1616.3 320 / 71021.0 -5.2-7.7
2018-Nov-12 17:00N 62°36' W 073°18'1515.0 320 / 31020.8 -4.9-8.8
2018-Nov-12 16:00N 62°42' W 073°48'2020.4 340 / 51020.7 -5.2-9.8
2018-Nov-12 15:00N 62°54' W 074°24'8 8.2 350 / 131020.8 -5.1-13.8
2018-Nov-12 14:00N 62°54' W 074°42'5 5.5 280 / 71021.0 -5.1-13.9
2018-Nov-12 13:00N 62°54' W 074°30'2010.0 240 / 111020.8 -5.1-14.3
2018-Nov-12 11:00N 62°48' W 073°48'8 8.2 250 / 161020.6 -4.8-11.7
2018-Nov-12 10:00N 62°48' W 073°30'1010.2 270 / 191020.3 -5.5-6.5
2018-Nov-12 09:00N 62°42' W 073°12'1010.2 200 / 231019.5 -6.1-6.5
2018-Nov-12 08:00N 62°36' W 072°54'1010.2 220 / 211019.4 -5.4-7.1
2018-Nov-12 07:00N 62°30' W 072°36'1010.3 230 / 171019.1 -4.6-10.4
2018-Nov-12 06:00N 62°24' W 072°18'1010.3 240 / 211018.4 -4.5-9.6
2018-Nov-12 05:00N 62°18' W 072°00'1010.3 250 / 201017.7 -4.4-8.8
2018-Nov-12 04:00N 62°12' W 071°42'1010.3 260 / 211017.2 -4.5-7.1
2018-Nov-12 03:00N 62°06' W 071°24'1313.3 270 / 181017.0 -4.4-7.9
2018-Nov-12 02:00N 61°54' W 071°12'8 8.5 300 / 141016.9 -4.2-6.9
2018-Nov-12 01:00N 61°54' W 070°54'19 9.3 290 / 181016.9 -4.3-8.5
2018-Nov-11 23:00N 61°42' W 070°24'6 5.7 290 / 251016.3 -4.4-10.3
2018-Nov-11 22:00N 61°42' W 070°12'1010.4 290 / 191016.3 -4.9-9.9
2018-Nov-11 21:00N 61°36' W 069°54'8 8.3 270 / 131016.2 -4.9-8.3
2018-Nov-11 20:00N 61°30' W 069°42'1010.5 280 / 111015.5 -4.6-6.9
2018-Nov-11 19:00N 61°24' W 069°24'8 8.3 270 / 141014.8 -4.6-4.9
2018-Nov-11 18:00N 61°18' W 069°12'6 5.8 300 / 51014.2 -4.5-5.3
2018-Nov-11 17:00N 61°18' W 069°00'0 0.0 010 / 31014.0 -4.0-6.4
2018-Nov-11 16:00N 61°18' W 069°00'7 6.7 360 / 111013.7 -4.4-5.9
2018-Nov-11 15:00N 61°12' W 068°54'6 5.8 020 / 71013.7 -4.2-6.1
2018-Nov-11 14:00N 61°12' W 068°42'8 8.3 010 / 101013.5 -4.0-5.6
2018-Nov-11 13:00N 61°06' W 068°30'8 8.4 010 / 121013.3 -4.0-5.0
2018-Nov-11 12:00N 61°00' W 068°18'8 8.4 020 / 121013.5 -3.5-4.0
2018-Nov-11 11:00N 60°54' W 068°06'6 5.8 110 / 61013.8 -3.4-5.0
2018-Nov-11 10:00N 60°54' W 067°54'3 2.9 100 / 51014.3 -3.6-3.9
2018-Nov-11 09:00N 60°54' W 067°48'3 2.9 350 / 71014.4 -3.9-4.4
2018-Nov-11 08:00N 60°54' W 067°42'6 5.8 060 / 31015.1 -3.8-6.1
2018-Nov-11 07:00N 60°54' W 067°30'8 8.4 070 / 41015.3 -3.8-7.0
2018-Nov-11 06:00N 60°48' W 067°18'12 5.9 350 / 31015.5 -3.9-6.8
2018-Nov-11 04:00N 60°48' W 066°54'3 2.9 320 / 51016.1 -3.7-6.9
2018-Nov-11 03:00N 60°48' W 066°48'6 5.9 010 / 41016.7 -3.4-7.5
2018-Nov-11 02:00N 60°48' W 066°36'3 2.9 020 / 31017.6 -3.3-7.2
2018-Nov-11 01:00N 60°48' W 066°30'6 5.9 290 / 41018.6 -3.2-7.3
2018-Nov-11 00:00N 60°48' W 066°18'6 5.9 300 / 71018.9 -3.3-7.3
2018-Nov-10 23:00N 60°48' W 066°06'6 5.9 260 / 81020.0 -3.2-6.5
2018-Nov-10 22:00N 60°48' W 065°54'6 6.0 270 / 101020.6 -3.2-6.8
2018-Nov-10 21:00N 60°42' W 065°54'3 2.9 270 / 131021.1 -3.3-7.0
2018-Nov-10 20:00N 60°42' W 066°00'3 2.9 250 / 151021.0 -3.1-6.3
2018-Nov-10 19:00N 60°42' W 066°06'0 0.0 240 / 141020.8 -3.0-5.4
2018-Nov-10 18:00N 60°42' W 066°06'6 5.9 240 / 181020.4 -2.5-5.0
2018-Nov-10 17:00N 60°42' W 065°54'6 6.0 250 / 211019.5 -2.3-3.0
2018-Nov-10 16:00N 60°36' W 065°54'6 6.0 240 / 151019.3 -1.2-2.0
2018-Nov-10 15:00N 60°42' W 065°54'7 6.7 220 / 121019.3 -2.7-2.9
2018-Nov-10 14:00N 60°48' W 065°48'1212.0 190 / 71019.3 -4.2-5.5
2018-Nov-10 13:00N 61°00' W 065°48'1212.0 150 / 101019.2 -4.2-5.0
2018-Nov-10 12:00N 61°12' W 065°48'1818.2 150 / 91018.7 -2.6-3.6
2018-Nov-10 11:00N 61°30' W 065°42'1212.3 150 / 91018.7 -2.7-4.4
2018-Nov-10 10:00N 61°42' W 065°36'1212.0 170 / 131018.5 -3.0-3.3
2018-Nov-10 09:00N 61°54' W 065°36'1212.0 170 / 81018.3 -3.1-4.0
2018-Nov-10 08:00N 62°06' W 065°36'1313.2 040 / 61018.6 -3.6-5.3
2018-Nov-10 07:00N 62°18' W 065°48'1212.3 080 / 41018.4 -3.6-5.0
2018-Nov-10 06:00N 62°30' W 065°54'1312.6 340 / 101018.4 -3.7-4.7
2018-Nov-10 05:00N 62°36' W 066°18'1616.3 340 / 121017.8 -3.7-4.4
2018-Nov-10 04:00N 62°48' W 066°42'1010.2 330 / 171017.5 -3.7-4.3
2018-Nov-10 03:00N 62°54' W 067°00'1616.2 320 / 131017.4 -3.8-5.0
2018-Nov-10 02:00N 63°06' W 067°24'1110.9 320 / 111017.5 -4.2-5.1
2018-Nov-10 01:00N 63°06' W 067°48'1414.5 010 / 51017.6 -4.8-6.8
2018-Nov-10 00:00N 63°18' W 068°06'1313.1 010 / 71017.9 -4.5-4.7
2018-Nov-09 23:00N 63°30' W 068°18'13 6.6 030 / 61018.1 -5.6-5.8
2018-Nov-09 21:00N 63°42' W 068°30'0 0.0 260 / 21018.7 -6.7-7.3
2018-Nov-09 20:00N 63°42' W 068°30'0 0.0 280 / 41018.8 -6.7-7.7
2018-Nov-09 19:00N 63°42' W 068°30'0 0.0 270 / 51018.6 -6.4-7.6
2018-Nov-09 18:00N 63°42' W 068°30'0 0.0 320 / 31018.3 -5.6-6.9
2018-Nov-09 17:00N 63°42' W 068°30'0 0.0 330 / 41018.0 -5.6-7.1
2018-Nov-09 16:00N 63°42' W 068°30'0 0.0 010 / 51017.9 -5.8-7.0
2018-Nov-09 15:00N 63°42' W 068°30'0 0.0 010 / 51017.6 -6.0-6.3
2018-Nov-09 14:00N 63°42' W 068°30'0 0.0 340 / 41017.5 -6.4-6.7
2018-Nov-09 13:00N 63°42' W 068°30'0 0.0 030 / 21017.7 -6.2-6.4
2018-Nov-09 12:00N 63°42' W 068°30'0 0.0 120 / 31017.9 -5.8-6.3
2018-Nov-09 11:00N 63°42' W 068°30'0 0.0 050 / 31018.3 -6.1-7.3
2018-Nov-09 10:00N 63°42' W 068°30'0 0.0 030 / 51018.6 -6.3-7.5
2018-Nov-09 09:00N 63°42' W 068°30'0 0.0 050 / 51018.8 -5.9-7.1
2018-Nov-09 08:00N 63°42' W 068°30'0 0.0 350 / 61019.3 -6.3-7.9
2018-Nov-09 07:00N 63°42' W 068°30'0 0.0 060 / 81019.5 -5.7-7.3
2018-Nov-09 06:00N 63°42' W 068°30'0 0.0 040 / 71019.5 -5.5-7.0
2018-Nov-09 05:00N 63°42' W 068°30'0 0.0 040 / 91019.3 -5.6-6.9
2018-Nov-09 04:00N 63°42' W 068°30'0 0.0 030 / 91019.0 -5.4-7.0
2018-Nov-09 02:00N 63°42' W 068°30'0 0.0 060 / 81018.4 -4.9-6.8
2018-Nov-09 01:00N 63°42' W 068°30'0 0.0 050 / 81018.4 -4.9-6.8
2018-Nov-09 00:00N 63°42' W 068°30'0 0.0 060 / 91018.5 -4.8-6.8
2018-Nov-08 23:00N 63°42' W 068°30'0 0.0 060 / 81018.6 -4.6-6.7
2018-Nov-08 22:00N 63°42' W 068°30'0 0.0 050 / 81018.8 -4.4-6.8
2018-Nov-08 21:00N 63°42' W 068°30'0 0.0 050 / 91019.0 -4.5-7.1
2018-Nov-08 20:00N 63°42' W 068°30'0 0.0 070 / 91018.9 -4.0-6.6
2018-Nov-08 19:00N 63°42' W 068°30'0 0.0 080 / 81018.7 -3.8-6.6
2018-Nov-08 18:00N 63°42' W 068°30'0 0.0 050 / 91018.3 -4.0-7.3
2018-Nov-08 17:00N 63°42' W 068°30'0 0.0 050 / 101017.9 -4.2-7.8
2018-Nov-08 16:00N 63°42' W 068°30'0 0.0 060 / 101017.3 -4.0-8.0
2018-Nov-08 14:00N 63°42' W 068°30'0 0.0 050 / 101016.2 -4.2-8.1
2018-Nov-08 13:00N 63°42' W 068°30'0 0.0 040 / 91015.6 -4.8-8.3
2018-Nov-08 12:00N 63°42' W 068°30'0 0.0 050 / 101015.1 -4.8-8.6
2018-Nov-08 11:00N 63°42' W 068°30'0 0.0 060 / 101014.8 -4.5-8.9
2018-Nov-08 10:00N 63°42' W 068°30'0 0.0 070 / 91014.8 -4.6-9.4
2018-Nov-08 09:00N 63°42' W 068°30'0 0.0 070 / 111014.8 -4.3-9.8
2018-Nov-08 08:00N 63°42' W 068°30'0 0.0 070 / 91014.9 -4.4-9.7
2018-Nov-08 07:00N 63°42' W 068°30'0 0.0 080 / 91014.6 -4.1-10.0
2018-Nov-08 06:00N 63°42' W 068°30'0 0.0 050 / 81014.4 -4.4-9.6
2018-Nov-08 05:00N 63°42' W 068°30'0 0.0 050 / 91013.8 -4.1-9.2
2018-Nov-08 04:00N 63°42' W 068°30'0 0.0 060 / 121013.4 -4.2-9.3
2018-Nov-08 03:00N 63°42' W 068°30'0 0.0 050 / 121012.9 -4.2-9.2
2018-Nov-08 02:00N 63°42' W 068°30'0 0.0 050 / 131012.4 -4.2-9.1
2018-Nov-08 01:00N 63°42' W 068°30'0 0.0 060 / 121012.2 -4.0-9.1
2018-Nov-08 00:00N 63°42' W 068°30'0 0.0 070 / 131011.8 -3.7-8.6
2018-Nov-07 23:00N 63°42' W 068°30'0 0.0 070 / 151011.3 -3.7-8.1
2018-Nov-07 22:00N 63°42' W 068°30'0 0.0 070 / 121011.5 -4.1-6.6
2018-Nov-07 21:00N 63°42' W 068°30'0 0.0 070 / 161011.5 -3.5-7.2
2018-Nov-07 19:00N 63°42' W 068°30'0 0.0 080 / 131012.0 -3.3-7.0
2018-Nov-07 18:00N 63°42' W 068°30'0 0.0 070 / 161011.8 -3.7-6.7
2018-Nov-07 17:00N 63°42' W 068°30'0 0.0 080 / 201012.0 -3.4-7.0
2018-Nov-07 16:00N 63°42' W 068°30'0 0.0 080 / 181011.7 -3.8-6.2
2018-Nov-07 15:00N 63°42' W 068°30'0 0.0 090 / 181011.6 -3.2-6.0
2018-Nov-07 14:00N 63°42' W 068°30'0 0.0 070 / 151011.7 -3.1-5.7
2018-Nov-07 13:00N 63°42' W 068°30'0 0.0 080 / 151011.5 -2.9-4.6
2018-Nov-07 12:00N 63°42' W 068°30'0 0.0 090 / 171011.8 -2.8-4.4
2018-Nov-07 11:00N 63°42' W 068°30'0 0.0 080 / 151012.0 -3.0-4.3
2018-Nov-07 10:00N 63°42' W 068°30'0 0.0 080 / 181012.3 -3.4-3.8
2018-Nov-07 09:00N 63°42' W 068°30'0 0.0 080 / 181012.8 -3.3-3.8
2018-Nov-07 07:00N 63°42' W 068°30'0 0.0 080 / 191013.8 -3.7-3.9
2018-Nov-07 06:00N 63°42' W 068°30'0 0.0 090 / 191014.5 -3.7-3.9
2018-Nov-07 05:00N 63°42' W 068°30'0 0.0 080 / 181014.8 -3.6-3.8
2018-Nov-07 04:00N 63°42' W 068°30'0 0.0 080 / 171014.9 -3.3-3.5
2018-Nov-07 03:00N 63°42' W 068°30'0 0.0 090 / 191014.9 -3.2-3.4
2018-Nov-07 02:00N 63°42' W 068°30'0 0.0 080 / 171015.1 -3.3-3.5
2018-Nov-07 01:00N 63°42' W 068°30'   090 / 161015.1 -3.4-3.6
Track history (hours):
 
Tides and Currents Weather Stations Pressure Air Temp Water Temp Dewpoint Dewpoint Depression Visibility Wind Speed Wind Dir Waves Ship Positions

CCGS Henry Larsen (Canada)

Medium Gulf/River Icebreaker

Last reported at 2018-Nov-15 07:00 UTC. Time now 2018-Nov-15 08:04 UTC.
Position N 58°30' W 062°48'.

Length 100.03 m; beam 19.82 m; draft 7.2 m.

Type: SAR. MMSI: 316013000.

Wind from 270 at 8 knots

Barometer 1005.4 mb
Air temperature -4.8 ° C
Dewpoint -12.0 ° C

Date/timePositionNaut miles runAvg speedWind from/ knotsBaromVisibWave heightAir tempDewpointWater temp
2018-Nov-15 07:00N 58°30' W 062°48'0 0.0 270 / 81005.4 -4.8-12.0
2018-Nov-15 06:00N 58°30' W 062°48'0 0.0 260 / 131004.7 -5.2-11.9
2018-Nov-15 05:00N 58°30' W 062°48'0 0.0 260 / 101004.0 -4.7-10.8
2018-Nov-15 04:00N 58°30' W 062°48'0 0.0 280 / 81003.2 -4.5-10.6
2018-Nov-15 03:00N 58°30' W 062°48'0 0.0 330 / 151002.5 -3.5-7.2
2018-Nov-15 02:00N 58°30' W 062°48'0 0.0 330 / 161001.8 -3.2-9.6
2018-Nov-15 01:00N 58°30' W 062°48'0 0.0 320 / 121001.4 -3.6-11.6
2018-Nov-15 00:00N 58°30' W 062°48'0 0.0 310 / 71001.4 -4.0-11.5
2018-Nov-14 23:00N 58°30' W 062°48'0 0.0 310 / 91001.3 -4.0-11.8
2018-Nov-14 22:00N 58°30' W 062°48'0 0.0 320 / 121001.2 -3.9-11.4
2018-Nov-14 21:00N 58°30' W 062°48'0 0.0 290 / 51001.1 -4.1-10.9
2018-Nov-14 20:00N 58°30' W 062°48'0 0.0 240 / 91001.1 -5.0-10.5
2018-Nov-14 19:00N 58°30' W 062°48'0 0.0 160 / 11001.4 -5.3-9.9
2018-Nov-14 18:00N 58°30' W 062°48'0 0.0 080 / 31001.2 -5.8-9.4
2018-Nov-14 17:00N 58°30' W 062°48'0 0.0 130 / 31001.1 -5.9-9.5
2018-Nov-14 16:00N 58°30' W 062°48'0 0.0 120 / 41001.3 -6.3-10.2
2018-Nov-14 15:00N 58°30' W 062°48'0 0.0 170 / 31002.1 -6.9-10.5
2018-Nov-14 13:00N 58°30' W 062°48'0 0.0 170 / 51003.3 -7.8-11.9
2018-Nov-14 12:00N 58°30' W 062°48'0 0.0 170 / 31004.1 -7.9-12.3
2018-Nov-14 11:00N 58°30' W 062°48'0 0.0 170 / 51004.4 -7.5-12.1
2018-Nov-14 10:00N 58°30' W 062°48'0 0.0 180 / 31005.2 -7.3-11.6
2018-Nov-14 09:00N 58°30' W 062°48'0 0.0 100 / 11006.1 -7.2-12.4
2018-Nov-14 08:00N 58°30' W 062°48'0 0.0 170 / 81006.8 -6.7-11.4
2018-Nov-14 07:00N 58°30' W 062°48'0 0.0 170 / 81007.0 -6.7-10.7
2018-Nov-14 06:00N 58°30' W 062°48'0 0.0 170 / 81007.7 -6.7-11.4
2018-Nov-14 05:00N 58°30' W 062°48'0 0.0 150 / 111008.5 -6.2-11.7
2018-Nov-14 04:00N 58°30' W 062°48'0 0.0 180 / 61009.7 -6.8-9.9
2018-Nov-14 03:00N 58°30' W 062°48'0 0.0 170 / 91010.6 -6.3-10.7
2018-Nov-14 02:00N 58°30' W 062°48'0 0.0 190 / 81011.5 -6.1-10.9
2018-Nov-14 01:00N 58°30' W 062°48'0 0.0 200 / 71012.4 -6.4-11.4
2018-Nov-14 00:00N 58°30' W 062°48'0 0.0 180 / 61013.2 -6.7-11.5
2018-Nov-13 23:00N 58°30' W 062°48'0 0.0 160 / 51014.1 -7.3-11.0
2018-Nov-13 22:00N 58°30' W 062°48'0 0.0 190 / 41014.8 -6.7-11.3
2018-Nov-13 21:00N 58°30' W 062°48'0 0.0 200 / 51015.5 -6.8-11.5
2018-Nov-13 20:00N 58°30' W 062°48'18 9.0 160 / 91016.2 -6.2-10.4
2018-Nov-13 18:00N 58°48' W 062°48'1413.5 080 / 81015.9 -4.0-9.1
2018-Nov-13 17:00N 59°00' W 063°00'1919.0 080 / 51016.4 -4.4-9.4
2018-Nov-13 16:00N 59°18' W 063°12'1212.0 140 / 11016.7 -4.5-8.9
2018-Nov-13 15:00N 59°30' W 063°12'1818.0 290 / 31017.3 -4.5-7.7
2018-Nov-13 14:00N 59°48' W 063°12'1515.0 020 / 101018.0 -4.6-9.1
2018-Nov-13 13:00N 60°00' W 063°30'1515.0 010 / 131018.5 -5.1-9.4
2018-Nov-13 12:00N 60°12' W 063°48'1515.0 360 / 131018.9 -5.2-10.7
2018-Nov-13 11:00N 60°24' W 064°06'1918.7 340 / 191018.9 -5.6-10.1
2018-Nov-13 10:00N 60°30' W 064°42'1615.9 330 / 241019.0 -6.0-11.3
2018-Nov-13 09:00N 60°36' W 065°12'1615.9 350 / 201019.2 -5.5-10.0
2018-Nov-13 08:00N 60°42' W 065°42'3215.8 350 / 171019.5 -5.3-9.3
2018-Nov-13 06:00N 60°54' W 066°42'1615.8 320 / 221019.9 -6.2-11.3
2018-Nov-13 05:00N 61°00' W 067°12'2121.1 310 / 261019.9 -6.1-12.0
2018-Nov-13 04:00N 61°12' W 067°48'1615.6 320 / 251020.5 -5.9-11.7
2018-Nov-13 03:00N 61°18' W 068°18'1615.6 320 / 241020.6 -5.9-11.7
2018-Nov-13 02:00N 61°24' W 068°48'1615.5 330 / 211021.0 -5.6-11.1
2018-Nov-13 01:00N 61°30' W 069°18'1615.5 330 / 211021.3 -5.1-11.6
2018-Nov-13 00:00N 61°36' W 069°48'1515.5 350 / 221021.6 -5.0-9.9
2018-Nov-12 23:00N 61°42' W 070°18'1818.1 360 / 141021.9 -5.0-9.5
2018-Nov-12 22:00N 61°48' W 070°54'1515.4 350 / 201021.7 -4.8-10.1
2018-Nov-12 21:00N 61°54' W 071°24'1515.3 010 / 141021.9 -4.6-7.9
2018-Nov-12 20:00N 62°00' W 071°54'1818.5 330 / 181021.7 -5.6-7.5
2018-Nov-12 19:00N 62°12' W 072°24'1818.4 340 / 141021.5 -4.9-8.9
2018-Nov-12 18:00N 62°24' W 072°54'1616.3 320 / 71021.0 -5.2-7.7
2018-Nov-12 17:00N 62°36' W 073°18'1515.0 320 / 31020.8 -4.9-8.8
2018-Nov-12 16:00N 62°42' W 073°48'2020.4 340 / 51020.7 -5.2-9.8
2018-Nov-12 15:00N 62°54' W 074°24'8 8.2 350 / 131020.8 -5.1-13.8
2018-Nov-12 14:00N 62°54' W 074°42'5 5.5 280 / 71021.0 -5.1-13.9
2018-Nov-12 13:00N 62°54' W 074°30'2010.0 240 / 111020.8 -5.1-14.3
2018-Nov-12 11:00N 62°48' W 073°48'8 8.2 250 / 161020.6 -4.8-11.7
2018-Nov-12 10:00N 62°48' W 073°30'1010.2 270 / 191020.3 -5.5-6.5
2018-Nov-12 09:00N 62°42' W 073°12'1010.2 200 / 231019.5 -6.1-6.5
2018-Nov-12 08:00N 62°36' W 072°54'1010.2 220 / 211019.4 -5.4-7.1
2018-Nov-12 07:00N 62°30' W 072°36'1010.3 230 / 171019.1 -4.6-10.4
2018-Nov-12 06:00N 62°24' W 072°18'1010.3 240 / 211018.4 -4.5-9.6
2018-Nov-12 05:00N 62°18' W 072°00'1010.3 250 / 201017.7 -4.4-8.8
2018-Nov-12 04:00N 62°12' W 071°42'1010.3 260 / 211017.2 -4.5-7.1
2018-Nov-12 03:00N 62°06' W 071°24'1313.3 270 / 181017.0 -4.4-7.9
2018-Nov-12 02:00N 61°54' W 071°12'8 8.5 300 / 141016.9 -4.2-6.9
2018-Nov-12 01:00N 61°54' W 070°54'19 9.3 290 / 181016.9 -4.3-8.5
2018-Nov-11 23:00N 61°42' W 070°24'6 5.7 290 / 251016.3 -4.4-10.3
2018-Nov-11 22:00N 61°42' W 070°12'1010.4 290 / 191016.3 -4.9-9.9
2018-Nov-11 21:00N 61°36' W 069°54'8 8.3 270 / 131016.2 -4.9-8.3
2018-Nov-11 20:00N 61°30' W 069°42'1010.5 280 / 111015.5 -4.6-6.9
2018-Nov-11 19:00N 61°24' W 069°24'8 8.3 270 / 141014.8 -4.6-4.9
2018-Nov-11 18:00N 61°18' W 069°12'6 5.8 300 / 51014.2 -4.5-5.3
2018-Nov-11 17:00N 61°18' W 069°00'0 0.0 010 / 31014.0 -4.0-6.4
2018-Nov-11 16:00N 61°18' W 069°00'7 6.7 360 / 111013.7 -4.4-5.9
2018-Nov-11 15:00N 61°12' W 068°54'6 5.8 020 / 71013.7 -4.2-6.1
2018-Nov-11 14:00N 61°12' W 068°42'8 8.3 010 / 101013.5 -4.0-5.6
2018-Nov-11 13:00N 61°06' W 068°30'8 8.4 010 / 121013.3 -4.0-5.0
2018-Nov-11 12:00N 61°00' W 068°18'8 8.4 020 / 121013.5 -3.5-4.0
2018-Nov-11 11:00N 60°54' W 068°06'6 5.8 110 / 61013.8 -3.4-5.0
2018-Nov-11 10:00N 60°54' W 067°54'3 2.9 100 / 51014.3 -3.6-3.9
2018-Nov-11 09:00N 60°54' W 067°48'3 2.9 350 / 71014.4 -3.9-4.4
2018-Nov-11 08:00N 60°54' W 067°42'6 5.8 060 / 31015.1 -3.8-6.1
2018-Nov-11 07:00N 60°54' W 067°30'8 8.4 070 / 41015.3 -3.8-7.0
2018-Nov-11 06:00N 60°48' W 067°18'12 5.9 350 / 31015.5 -3.9-6.8
2018-Nov-11 04:00N 60°48' W 066°54'3 2.9 320 / 51016.1 -3.7-6.9
2018-Nov-11 03:00N 60°48' W 066°48'6 5.9 010 / 41016.7 -3.4-7.5
2018-Nov-11 02:00N 60°48' W 066°36'3 2.9 020 / 31017.6 -3.3-7.2
2018-Nov-11 01:00N 60°48' W 066°30'6 5.9 290 / 41018.6 -3.2-7.3
2018-Nov-11 00:00N 60°48' W 066°18'6 5.9 300 / 71018.9 -3.3-7.3
2018-Nov-10 23:00N 60°48' W 066°06'6 5.9 260 / 81020.0 -3.2-6.5
2018-Nov-10 22:00N 60°48' W 065°54'6 6.0 270 / 101020.6 -3.2-6.8
2018-Nov-10 21:00N 60°42' W 065°54'3 2.9 270 / 131021.1 -3.3-7.0
2018-Nov-10 20:00N 60°42' W 066°00'3 2.9 250 / 151021.0 -3.1-6.3
2018-Nov-10 19:00N 60°42' W 066°06'0 0.0 240 / 141020.8 -3.0-5.4
2018-Nov-10 18:00N 60°42' W 066°06'6 5.9 240 / 181020.4 -2.5-5.0
2018-Nov-10 17:00N 60°42' W 065°54'6 6.0 250 / 211019.5 -2.3-3.0
2018-Nov-10 16:00N 60°36' W 065°54'6 6.0 240 / 151019.3 -1.2-2.0
2018-Nov-10 15:00N 60°42' W 065°54'7 6.7 220 / 121019.3 -2.7-2.9
2018-Nov-10 14:00N 60°48' W 065°48'1212.0 190 / 71019.3 -4.2-5.5
2018-Nov-10 13:00N 61°00' W 065°48'1212.0 150 / 101019.2 -4.2-5.0
2018-Nov-10 12:00N 61°12' W 065°48'1818.2 150 / 91018.7 -2.6-3.6
2018-Nov-10 11:00N 61°30' W 065°42'1212.3 150 / 91018.7 -2.7-4.4
2018-Nov-10 10:00N 61°42' W 065°36'1212.0 170 / 131018.5 -3.0-3.3
2018-Nov-10 09:00N 61°54' W 065°36'1212.0 170 / 81018.3 -3.1-4.0
2018-Nov-10 08:00N 62°06' W 065°36'1313.2 040 / 61018.6 -3.6-5.3
2018-Nov-10 07:00N 62°18' W 065°48'1212.3 080 / 41018.4 -3.6-5.0
2018-Nov-10 06:00N 62°30' W 065°54'1312.6 340 / 101018.4 -3.7-4.7
2018-Nov-10 05:00N 62°36' W 066°18'1616.3 340 / 121017.8 -3.7-4.4
2018-Nov-10 04:00N 62°48' W 066°42'1010.2 330 / 171017.5 -3.7-4.3
2018-Nov-10 03:00N 62°54' W 067°00'1616.2 320 / 131017.4 -3.8-5.0
2018-Nov-10 02:00N 63°06' W 067°24'1110.9 320 / 111017.5 -4.2-5.1
2018-Nov-10 01:00N 63°06' W 067°48'1414.5 010 / 51017.6 -4.8-6.8
2018-Nov-10 00:00N 63°18' W 068°06'1313.1 010 / 71017.9 -4.5-4.7
2018-Nov-09 23:00N 63°30' W 068°18'13 6.6 030 / 61018.1 -5.6-5.8
2018-Nov-09 21:00N 63°42' W 068°30'0 0.0 260 / 21018.7 -6.7-7.3
2018-Nov-09 20:00N 63°42' W 068°30'0 0.0 280 / 41018.8 -6.7-7.7
2018-Nov-09 19:00N 63°42' W 068°30'0 0.0 270 / 51018.6 -6.4-7.6
2018-Nov-09 18:00N 63°42' W 068°30'0 0.0 320 / 31018.3 -5.6-6.9
2018-Nov-09 17:00N 63°42' W 068°30'0 0.0 330 / 41018.0 -5.6-7.1
2018-Nov-09 16:00N 63°42' W 068°30'0 0.0 010 / 51017.9 -5.8-7.0
2018-Nov-09 15:00N 63°42' W 068°30'0 0.0 010 / 51017.6 -6.0-6.3
2018-Nov-09 14:00N 63°42' W 068°30'0 0.0 340 / 41017.5 -6.4-6.7
2018-Nov-09 13:00N 63°42' W 068°30'0 0.0 030 / 21017.7 -6.2-6.4
2018-Nov-09 12:00N 63°42' W 068°30'0 0.0 120 / 31017.9 -5.8-6.3
2018-Nov-09 11:00N 63°42' W 068°30'0 0.0 050 / 31018.3 -6.1-7.3
2018-Nov-09 10:00N 63°42' W 068°30'0 0.0 030 / 51018.6 -6.3-7.5
2018-Nov-09 09:00N 63°42' W 068°30'0 0.0 050 / 51018.8 -5.9-7.1
2018-Nov-09 08:00N 63°42' W 068°30'0 0.0 350 / 61019.3 -6.3-7.9
2018-Nov-09 07:00N 63°42' W 068°30'0 0.0 060 / 81019.5 -5.7-7.3
2018-Nov-09 06:00N 63°42' W 068°30'0 0.0 040 / 71019.5 -5.5-7.0
2018-Nov-09 05:00N 63°42' W 068°30'0 0.0 040 / 91019.3 -5.6-6.9
2018-Nov-09 04:00N 63°42' W 068°30'0 0.0 030 / 91019.0 -5.4-7.0
2018-Nov-09 02:00N 63°42' W 068°30'0 0.0 060 / 81018.4 -4.9-6.8
2018-Nov-09 01:00N 63°42' W 068°30'0 0.0 050 / 81018.4 -4.9-6.8
2018-Nov-09 00:00N 63°42' W 068°30'0 0.0 060 / 91018.5 -4.8-6.8
2018-Nov-08 23:00N 63°42' W 068°30'0 0.0 060 / 81018.6 -4.6-6.7
2018-Nov-08 22:00N 63°42' W 068°30'0 0.0 050 / 81018.8 -4.4-6.8
2018-Nov-08 21:00N 63°42' W 068°30'0 0.0 050 / 91019.0 -4.5-7.1
2018-Nov-08 20:00N 63°42' W 068°30'0 0.0 070 / 91018.9 -4.0-6.6
2018-Nov-08 19:00N 63°42' W 068°30'0 0.0 080 / 81018.7 -3.8-6.6
2018-Nov-08 18:00N 63°42' W 068°30'0 0.0 050 / 91018.3 -4.0-7.3
2018-Nov-08 17:00N 63°42' W 068°30'0 0.0 050 / 101017.9 -4.2-7.8
2018-Nov-08 16:00N 63°42' W 068°30'0 0.0 060 / 101017.3 -4.0-8.0
2018-Nov-08 14:00N 63°42' W 068°30'0 0.0 050 / 101016.2 -4.2-8.1
2018-Nov-08 13:00N 63°42' W 068°30'0 0.0 040 / 91015.6 -4.8-8.3
2018-Nov-08 12:00N 63°42' W 068°30'0 0.0 050 / 101015.1 -4.8-8.6
2018-Nov-08 11:00N 63°42' W 068°30'0 0.0 060 / 101014.8 -4.5-8.9
2018-Nov-08 10:00N 63°42' W 068°30'0 0.0 070 / 91014.8 -4.6-9.4
2018-Nov-08 09:00N 63°42' W 068°30'0 0.0 070 / 111014.8 -4.3-9.8
2018-Nov-08 08:00N 63°42' W 068°30'0 0.0 070 / 91014.9 -4.4-9.7
2018-Nov-08 07:00N 63°42' W 068°30'0 0.0 080 / 91014.6 -4.1-10.0
2018-Nov-08 06:00N 63°42' W 068°30'0 0.0 050 / 81014.4 -4.4-9.6
2018-Nov-08 05:00N 63°42' W 068°30'0 0.0 050 / 91013.8 -4.1-9.2
2018-Nov-08 04:00N 63°42' W 068°30'0 0.0 060 / 121013.4 -4.2-9.3
2018-Nov-08 03:00N 63°42' W 068°30'0 0.0 050 / 121012.9 -4.2-9.2
2018-Nov-08 02:00N 63°42' W 068°30'0 0.0 050 / 131012.4 -4.2-9.1
2018-Nov-08 01:00N 63°42' W 068°30'0 0.0 060 / 121012.2 -4.0-9.1
2018-Nov-08 00:00N 63°42' W 068°30'0 0.0 070 / 131011.8 -3.7-8.6
2018-Nov-07 23:00N 63°42' W 068°30'0 0.0 070 / 151011.3 -3.7-8.1
2018-Nov-07 22:00N 63°42' W 068°30'0 0.0 070 / 121011.5 -4.1-6.6
2018-Nov-07 21:00N 63°42' W 068°30'0 0.0 070 / 161011.5 -3.5-7.2
2018-Nov-07 19:00N 63°42' W 068°30'0 0.0 080 / 131012.0 -3.3-7.0
2018-Nov-07 18:00N 63°42' W 068°30'0 0.0 070 / 161011.8 -3.7-6.7
2018-Nov-07 17:00N 63°42' W 068°30'0 0.0 080 / 201012.0 -3.4-7.0
2018-Nov-07 16:00N 63°42' W 068°30'0 0.0 080 / 181011.7 -3.8-6.2
2018-Nov-07 15:00N 63°42' W 068°30'0 0.0 090 / 181011.6 -3.2-6.0
2018-Nov-07 14:00N 63°42' W 068°30'0 0.0 070 / 151011.7 -3.1-5.7
2018-Nov-07 13:00N 63°42' W 068°30'0 0.0 080 / 151011.5 -2.9-4.6
2018-Nov-07 12:00N 63°42' W 068°30'0 0.0 090 / 171011.8 -2.8-4.4
2018-Nov-07 11:00N 63°42' W 068°30'0 0.0 080 / 151012.0 -3.0-4.3
2018-Nov-07 10:00N 63°42' W 068°30'0 0.0 080 / 181012.3 -3.4-3.8
2018-Nov-07 09:00N 63°42' W 068°30'0 0.0 080 / 181012.8 -3.3-3.8
2018-Nov-07 07:00N 63°42' W 068°30'0 0.0 080 / 191013.8 -3.7-3.9
2018-Nov-07 06:00N 63°42' W 068°30'0 0.0 090 / 191014.5 -3.7-3.9
2018-Nov-07 05:00N 63°42' W 068°30'0 0.0 080 / 181014.8 -3.6-3.8
2018-Nov-07 04:00N 63°42' W 068°30'0 0.0 080 / 171014.9 -3.3-3.5
2018-Nov-07 03:00N 63°42' W 068°30'0 0.0 090 / 191014.9 -3.2-3.4
2018-Nov-07 02:00N 63°42' W 068°30'0 0.0 080 / 171015.1 -3.3-3.5
2018-Nov-07 01:00N 63°42' W 068°30'   090 / 161015.1 -3.4-3.6

Dump ship's entire track history